sensor_id;sensor_type;location;lat;lon;timestamp;pressure;altitude;pressure_sealevel;temperature;humidity
66547;BME280;53400;50.364;14.874;2022-10-31T00:01:35;99134.56;;;8.93;100.00
66547;BME280;53400;50.364;14.874;2022-10-31T00:04:01;99137.81;;;8.77;100.00
66547;BME280;53400;50.364;14.874;2022-10-31T00:06:27;99141.16;;;9.09;100.00
66547;BME280;53400;50.364;14.874;2022-10-31T00:08:54;99148.09;;;8.99;100.00
66547;BME280;53400;50.364;14.874;2022-10-31T00:11:22;99135.94;;;8.59;100.00
66547;BME280;53400;50.364;14.874;2022-10-31T00:13:48;99138.22;;;8.99;100.00
66547;BME280;53400;50.364;14.874;2022-10-31T00:16:15;99145.09;;;9.07;100.00
66547;BME280;53400;50.364;14.874;2022-10-31T00:18:41;99138.66;;;9.33;100.00
66547;BME280;53400;50.364;14.874;2022-10-31T00:21:07;99137.41;;;8.99;100.00
66547;BME280;53400;50.364;14.874;2022-10-31T00:23:33;99141.31;;;8.96;100.00
66547;BME280;53400;50.364;14.874;2022-10-31T00:26:00;99143.34;;;9.19;100.00
66547;BME280;53400;50.364;14.874;2022-10-31T00:28:28;99127.50;;;8.81;100.00
66547;BME280;53400;50.364;14.874;2022-10-31T00:30:58;99128.13;;;8.83;100.00
66547;BME280;53400;50.364;14.874;2022-10-31T00:33:24;99129.44;;;8.73;100.00
66547;BME280;53400;50.364;14.874;2022-10-31T00:35:50;99136.78;;;9.15;100.00
66547;BME280;53400;50.364;14.874;2022-10-31T00:38:16;99135.25;;;9.07;100.00
66547;BME280;53400;50.364;14.874;2022-10-31T00:40:42;99142.38;;;8.95;100.00
66547;BME280;53400;50.364;14.874;2022-10-31T00:43:08;99144.31;;;8.63;100.00
66547;BME280;53400;50.364;14.874;2022-10-31T00:45:36;99142.66;;;8.43;100.00
66547;BME280;53400;50.364;14.874;2022-10-31T00:48:01;99146.88;;;8.51;100.00
66547;BME280;53400;50.364;14.874;2022-10-31T00:50:27;99139.91;;;8.50;100.00
66547;BME280;53400;50.364;14.874;2022-10-31T00:52:53;99148.34;;;8.47;100.00
66547;BME280;53400;50.364;14.874;2022-10-31T00:55:19;99149.34;;;8.53;100.00
66547;BME280;53400;50.364;14.874;2022-10-31T00:57:46;99134.56;;;8.25;100.00
66547;BME280;53400;50.364;14.874;2022-10-31T01:00:12;99129.28;;;8.12;100.00
66547;BME280;53400;50.364;14.874;2022-10-31T01:02:40;99134.75;;;8.23;100.00
66547;BME280;53400;50.364;14.874;2022-10-31T01:05:06;99133.00;;;8.36;100.00
66547;BME280;53400;50.364;14.874;2022-10-31T01:07:35;99127.66;;;8.11;100.00
66547;BME280;53400;50.364;14.874;2022-10-31T01:10:01;99130.81;;;8.01;100.00
66547;BME280;53400;50.364;14.874;2022-10-31T01:12:27;99132.19;;;8.10;100.00
66547;BME280;53400;50.364;14.874;2022-10-31T01:14:53;99138.72;;;8.14;100.00
66547;BME280;53400;50.364;14.874;2022-10-31T01:17:19;99128.81;;;8.21;100.00
66547;BME280;53400;50.364;14.874;2022-10-31T01:19:46;99130.66;;;8.21;100.00
66547;BME280;53400;50.364;14.874;2022-10-31T01:22:12;99126.50;;;8.00;100.00
66547;BME280;53400;50.364;14.874;2022-10-31T01:24:38;99133.22;;;8.09;100.00
66547;BME280;53400;50.364;14.874;2022-10-31T01:27:04;99132.00;;;8.05;100.00
66547;BME280;53400;50.364;14.874;2022-10-31T01:29:30;99123.50;;;7.90;100.00
66547;BME280;53400;50.364;14.874;2022-10-31T01:31:56;99130.50;;;7.84;100.00
66547;BME280;53400;50.364;14.874;2022-10-31T01:34:22;99121.16;;;7.68;100.00
66547;BME280;53400;50.364;14.874;2022-10-31T01:36:49;99126.81;;;7.85;100.00
66547;BME280;53400;50.364;14.874;2022-10-31T01:39:17;99123.94;;;7.87;100.00
66547;BME280;53400;50.364;14.874;2022-10-31T01:41:47;99126.78;;;7.92;100.00
66547;BME280;53400;50.364;14.874;2022-10-31T01:44:49;99126.41;;;7.81;100.00
66547;BME280;53400;50.364;14.874;2022-10-31T01:47:17;99132.88;;;7.67;100.00
66547;BME280;53400;50.364;14.874;2022-10-31T01:49:47;99129.56;;;7.72;100.00
66547;BME280;53400;50.364;14.874;2022-10-31T01:52:19;99125.13;;;7.91;100.00
66547;BME280;53400;50.364;14.874;2022-10-31T01:54:48;99131.78;;;7.75;100.00
66547;BME280;53400;50.364;14.874;2022-10-31T01:57:18;99127.88;;;7.77;100.00
66547;BME280;53400;50.364;14.874;2022-10-31T01:59:48;99119.91;;;8.02;100.00
66547;BME280;53400;50.364;14.874;2022-10-31T02:02:17;99122.69;;;7.89;100.00
66547;BME280;53400;50.364;14.874;2022-10-31T02:04:44;99124.53;;;7.89;100.00
66547;BME280;53400;50.364;14.874;2022-10-31T02:07:14;99131.75;;;7.81;100.00
66547;BME280;53400;50.364;14.874;2022-10-31T02:09:43;99120.25;;;7.81;100.00
66547;BME280;53400;50.364;14.874;2022-10-31T02:12:10;99126.41;;;7.81;100.00
66547;BME280;53400;50.364;14.874;2022-10-31T02:14:37;99131.81;;;8.07;100.00
66547;BME280;53400;50.364;14.874;2022-10-31T02:17:04;99137.34;;;8.05;100.00
66547;BME280;53400;50.364;14.874;2022-10-31T02:19:37;99134.50;;;8.00;100.00
66547;BME280;53400;50.364;14.874;2022-10-31T02:22:09;99130.88;;;7.56;100.00
66547;BME280;53400;50.364;14.874;2022-10-31T02:25:02;99132.94;;;7.92;100.00
66547;BME280;53400;50.364;14.874;2022-10-31T02:27:49;99124.31;;;7.90;100.00
66547;BME280;53400;50.364;14.874;2022-10-31T02:30:20;99134.03;;;7.78;100.00
66547;BME280;53400;50.364;14.874;2022-10-31T02:33:09;99136.75;;;7.71;100.00
66547;BME280;53400;50.364;14.874;2022-10-31T02:35:49;99144.59;;;7.98;100.00
66547;BME280;53400;50.364;14.874;2022-10-31T02:38:26;99142.41;;;7.81;100.00
66547;BME280;53400;50.364;14.874;2022-10-31T02:41:01;99145.69;;;7.84;100.00
66547;BME280;53400;50.364;14.874;2022-10-31T02:43:36;99142.94;;;7.65;100.00
66547;BME280;53400;50.364;14.874;2022-10-31T02:46:10;99141.03;;;7.72;100.00
66547;BME280;53400;50.364;14.874;2022-10-31T02:48:42;99144.03;;;7.44;100.00
66547;BME280;53400;50.364;14.874;2022-10-31T02:51:11;99154.25;;;7.54;100.00
66547;BME280;53400;50.364;14.874;2022-10-31T02:53:38;99152.38;;;7.61;100.00
66547;BME280;53400;50.364;14.874;2022-10-31T02:56:06;99146.72;;;7.82;100.00
66547;BME280;53400;50.364;14.874;2022-10-31T02:58:37;99150.31;;;8.01;100.00
66547;BME280;53400;50.364;14.874;2022-10-31T03:01:31;99153.09;;;8.13;100.00
66547;BME280;53400;50.364;14.874;2022-10-31T03:06:54;99145.16;;;8.07;100.00
66547;BME280;53400;50.364;14.874;2022-10-31T03:09:25;99135.25;;;7.44;100.00
66547;BME280;53400;50.364;14.874;2022-10-31T03:11:57;99144.56;;;7.66;100.00
66547;BME280;53400;50.364;14.874;2022-10-31T03:14:27;99145.06;;;7.81;100.00
66547;BME280;53400;50.364;14.874;2022-10-31T03:17:05;99146.50;;;7.84;100.00
66547;BME280;53400;50.364;14.874;2022-10-31T03:19:37;99149.34;;;7.89;100.00
66547;BME280;53400;50.364;14.874;2022-10-31T03:22:09;99148.34;;;7.84;100.00
66547;BME280;53400;50.364;14.874;2022-10-31T03:24:37;99153.16;;;8.00;100.00
66547;BME280;53400;50.364;14.874;2022-10-31T03:27:06;99154.00;;;8.00;100.00
66547;BME280;53400;50.364;14.874;2022-10-31T03:29:35;99146.63;;;7.96;100.00
66547;BME280;53400;50.364;14.874;2022-10-31T03:32:06;99155.59;;;8.40;100.00
66547;BME280;53400;50.364;14.874;2022-10-31T03:34:36;99154.53;;;8.09;100.00
66547;BME280;53400;50.364;14.874;2022-10-31T03:37:05;99151.63;;;8.17;100.00
66547;BME280;53400;50.364;14.874;2022-10-31T03:39:34;99154.78;;;8.39;100.00
66547;BME280;53400;50.364;14.874;2022-10-31T03:42:05;99161.06;;;8.20;100.00
66547;BME280;53400;50.364;14.874;2022-10-31T03:44:32;99152.28;;;8.13;100.00
66547;BME280;53400;50.364;14.874;2022-10-31T03:46:59;99165.66;;;8.06;100.00
66547;BME280;53400;50.364;14.874;2022-10-31T03:49:27;99167.63;;;8.17;100.00
66547;BME280;53400;50.364;14.874;2022-10-31T03:51:58;99161.78;;;8.02;100.00
66547;BME280;53400;50.364;14.874;2022-10-31T03:54:31;99154.53;;;8.09;100.00
66547;BME280;53400;50.364;14.874;2022-10-31T03:57:06;99159.94;;;8.34;100.00
66547;BME280;53400;50.364;14.874;2022-10-31T03:59:36;99162.69;;;8.53;100.00
66547;BME280;53400;50.364;14.874;2022-10-31T04:02:07;99162.09;;;8.50;100.00
66547;BME280;53400;50.364;14.874;2022-10-31T04:04:34;99167.41;;;8.50;100.00
66547;BME280;53400;50.364;14.874;2022-10-31T04:07:03;99168.28;;;8.69;100.00
66547;BME280;53400;50.364;14.874;2022-10-31T04:09:33;99171.38;;;8.66;100.00
66547;BME280;53400;50.364;14.874;2022-10-31T04:12:04;99164.88;;;8.31;100.00
66547;BME280;53400;50.364;14.874;2022-10-31T04:14:32;99170.25;;;8.24;100.00
66547;BME280;53400;50.364;14.874;2022-10-31T04:17:01;99171.63;;;8.33;100.00
66547;BME280;53400;50.364;14.874;2022-10-31T04:19:27;99177.91;;;8.52;100.00
66547;BME280;53400;50.364;14.874;2022-10-31T04:21:53;99171.44;;;8.85;100.00
66547;BME280;53400;50.364;14.874;2022-10-31T04:24:21;99174.09;;;8.85;100.00
66547;BME280;53400;50.364;14.874;2022-10-31T04:26:47;99177.97;;;8.89;100.00
66547;BME280;53400;50.364;14.874;2022-10-31T04:29:12;99175.63;;;8.99;100.00
66547;BME280;53400;50.364;14.874;2022-10-31T04:31:38;99177.03;;;8.58;100.00
66547;BME280;53400;50.364;14.874;2022-10-31T04:34:04;99180.66;;;8.32;100.00
66547;BME280;53400;50.364;14.874;2022-10-31T04:36:30;99173.72;;;8.24;100.00
66547;BME280;53400;50.364;14.874;2022-10-31T04:38:56;99177.25;;;8.18;100.00
66547;BME280;53400;50.364;14.874;2022-10-31T04:41:23;99183.91;;;8.09;100.00
66547;BME280;53400;50.364;14.874;2022-10-31T04:43:49;99187.03;;;7.99;100.00
66547;BME280;53400;50.364;14.874;2022-10-31T04:46:15;99176.75;;;8.03;100.00
66547;BME280;53400;50.364;14.874;2022-10-31T04:48:41;99179.72;;;7.88;100.00
66547;BME280;53400;50.364;14.874;2022-10-31T04:51:07;99180.69;;;8.00;100.00
66547;BME280;53400;50.364;14.874;2022-10-31T04:53:33;99182.50;;;8.00;100.00
66547;BME280;53400;50.364;14.874;2022-10-31T04:55:59;99183.38;;;7.94;100.00
66547;BME280;53400;50.364;14.874;2022-10-31T04:58:29;99194.41;;;8.04;100.00
66547;BME280;53400;50.364;14.874;2022-10-31T05:00:55;99189.66;;;8.06;100.00
66547;BME280;53400;50.364;14.874;2022-10-31T05:03:22;99188.78;;;8.19;100.00
66547;BME280;53400;50.364;14.874;2022-10-31T05:05:48;99180.44;;;8.40;100.00
66547;BME280;53400;50.364;14.874;2022-10-31T05:08:14;99183.94;;;8.34;100.00
66547;BME280;53400;50.364;14.874;2022-10-31T05:10:41;99185.50;;;8.17;100.00
66547;BME280;53400;50.364;14.874;2022-10-31T05:13:07;99184.31;;;8.06;100.00
66547;BME280;53400;50.364;14.874;2022-10-31T05:15:34;99185.28;;;8.18;100.00
66547;BME280;53400;50.364;14.874;2022-10-31T05:18:00;99190.28;;;8.40;100.00
66547;BME280;53400;50.364;14.874;2022-10-31T05:20:28;99188.47;;;8.40;100.00
66547;BME280;53400;50.364;14.874;2022-10-31T05:22:56;99193.56;;;8.42;100.00
66547;BME280;53400;50.364;14.874;2022-10-31T05:25:25;99189.16;;;8.54;100.00
66547;BME280;53400;50.364;14.874;2022-10-31T05:27:53;99191.81;;;8.54;100.00
66547;BME280;53400;50.364;14.874;2022-10-31T05:30:21;99202.44;;;8.29;100.00
66547;BME280;53400;50.364;14.874;2022-10-31T05:32:50;99195.75;;;8.20;100.00
66547;BME280;53400;50.364;14.874;2022-10-31T05:35:18;99204.91;;;7.99;100.00
66547;BME280;53400;50.364;14.874;2022-10-31T05:37:44;99201.56;;;8.10;100.00
66547;BME280;53400;50.364;14.874;2022-10-31T05:40:12;99198.47;;;8.45;100.00
66547;BME280;53400;50.364;14.874;2022-10-31T05:42:39;99207.06;;;8.97;100.00
66547;BME280;53400;50.364;14.874;2022-10-31T05:45:07;99200.66;;;8.55;100.00
66547;BME280;53400;50.364;14.874;2022-10-31T05:47:33;99204.66;;;8.07;100.00
66547;BME280;53400;50.364;14.874;2022-10-31T05:50:00;99202.63;;;8.41;100.00
66547;BME280;53400;50.364;14.874;2022-10-31T05:52:26;99206.03;;;8.48;100.00
66547;BME280;53400;50.364;14.874;2022-10-31T05:54:52;99206.41;;;7.81;100.00
66547;BME280;53400;50.364;14.874;2022-10-31T05:57:17;99209.06;;;7.37;100.00
66547;BME280;53400;50.364;14.874;2022-10-31T05:59:43;99207.81;;;7.32;100.00
66547;BME280;53400;50.364;14.874;2022-10-31T06:02:09;99208.38;;;7.61;100.00
66547;BME280;53400;50.364;14.874;2022-10-31T06:04:35;99209.34;;;7.73;100.00
66547;BME280;53400;50.364;14.874;2022-10-31T06:07:02;99210.84;;;8.01;100.00
66547;BME280;53400;50.364;14.874;2022-10-31T06:09:28;99213.94;;;8.30;100.00
66547;BME280;53400;50.364;14.874;2022-10-31T06:11:54;99219.50;;;8.28;100.00
66547;BME280;53400;50.364;14.874;2022-10-31T06:14:20;99215.84;;;8.22;100.00
66547;BME280;53400;50.364;14.874;2022-10-31T06:16:46;99214.41;;;8.20;100.00
66547;BME280;53400;50.364;14.874;2022-10-31T06:19:12;99221.75;;;8.31;100.00
66547;BME280;53400;50.364;14.874;2022-10-31T06:21:38;99221.88;;;8.43;100.00
66547;BME280;53400;50.364;14.874;2022-10-31T06:24:06;99212.47;;;8.40;100.00
66547;BME280;53400;50.364;14.874;2022-10-31T06:26:32;99215.03;;;8.22;100.00
66547;BME280;53400;50.364;14.874;2022-10-31T06:28:58;99226.84;;;8.01;100.00
66547;BME280;53400;50.364;14.874;2022-10-31T06:31:24;99227.84;;;8.07;100.00
66547;BME280;53400;50.364;14.874;2022-10-31T06:33:50;99226.94;;;8.19;100.00
66547;BME280;53400;50.364;14.874;2022-10-31T06:36:16;99232.06;;;8.21;100.00
66547;BME280;53400;50.364;14.874;2022-10-31T06:38:42;99237.63;;;8.19;100.00
66547;BME280;53400;50.364;14.874;2022-10-31T06:41:09;99238.09;;;8.03;100.00
66547;BME280;53400;50.364;14.874;2022-10-31T06:43:35;99236.22;;;8.10;100.00
66547;BME280;53400;50.364;14.874;2022-10-31T06:46:02;99245.44;;;8.14;100.00
66547;BME280;53400;50.364;14.874;2022-10-31T06:48:29;99246.78;;;8.30;100.00
66547;BME280;53400;50.364;14.874;2022-10-31T06:50:57;99248.56;;;8.49;100.00
66547;BME280;53400;50.364;14.874;2022-10-31T06:53:23;99251.00;;;8.51;100.00
66547;BME280;53400;50.364;14.874;2022-10-31T06:55:49;99242.13;;;8.57;100.00
66547;BME280;53400;50.364;14.874;2022-10-31T06:58:16;99258.88;;;8.71;100.00
66547;BME280;53400;50.364;14.874;2022-10-31T07:00:42;99251.31;;;8.30;100.00
66547;BME280;53400;50.364;14.874;2022-10-31T07:03:10;99252.59;;;8.20;100.00
66547;BME280;53400;50.364;14.874;2022-10-31T07:05:37;99250.97;;;8.19;100.00
66547;BME280;53400;50.364;14.874;2022-10-31T07:08:05;99253.06;;;8.11;100.00
66547;BME280;53400;50.364;14.874;2022-10-31T07:10:33;99262.09;;;8.48;100.00
66547;BME280;53400;50.364;14.874;2022-10-31T07:13:00;99257.97;;;8.52;100.00
66547;BME280;53400;50.364;14.874;2022-10-31T07:15:30;99260.91;;;8.37;100.00
66547;BME280;53400;50.364;14.874;2022-10-31T07:17:59;99267.63;;;8.53;100.00
66547;BME280;53400;50.364;14.874;2022-10-31T07:20:25;99260.16;;;8.62;100.00
66547;BME280;53400;50.364;14.874;2022-10-31T07:22:51;99269.50;;;8.46;100.00
66547;BME280;53400;50.364;14.874;2022-10-31T07:25:17;99262.56;;;8.38;100.00
66547;BME280;53400;50.364;14.874;2022-10-31T07:27:43;99265.63;;;8.03;100.00
66547;BME280;53400;50.364;14.874;2022-10-31T07:30:11;99273.16;;;8.52;100.00
66547;BME280;53400;50.364;14.874;2022-10-31T07:32:39;99266.47;;;8.36;100.00
66547;BME280;53400;50.364;14.874;2022-10-31T07:35:05;99268.84;;;8.12;100.00
66547;BME280;53400;50.364;14.874;2022-10-31T07:37:31;99269.34;;;8.41;100.00
66547;BME280;53400;50.364;14.874;2022-10-31T07:39:57;99273.25;;;8.70;100.00
66547;BME280;53400;50.364;14.874;2022-10-31T07:42:23;99269.19;;;8.92;100.00
66547;BME280;53400;50.364;14.874;2022-10-31T07:44:48;99273.41;;;8.37;100.00
66547;BME280;53400;50.364;14.874;2022-10-31T07:47:14;99276.66;;;8.52;100.00
66547;BME280;53400;50.364;14.874;2022-10-31T07:49:42;99276.44;;;8.54;100.00
66547;BME280;53400;50.364;14.874;2022-10-31T07:52:08;99274.16;;;8.57;100.00
66547;BME280;53400;50.364;14.874;2022-10-31T07:54:33;99286.81;;;8.68;100.00
66547;BME280;53400;50.364;14.874;2022-10-31T07:56:59;99282.53;;;8.67;100.00
66547;BME280;53400;50.364;14.874;2022-10-31T07:59:25;99281.47;;;8.68;100.00
66547;BME280;53400;50.364;14.874;2022-10-31T08:01:53;99285.94;;;8.75;100.00
66547;BME280;53400;50.364;14.874;2022-10-31T08:04:18;99277.25;;;8.86;100.00
66547;BME280;53400;50.364;14.874;2022-10-31T08:06:46;99280.81;;;8.73;100.00
66547;BME280;53400;50.364;14.874;2022-10-31T08:09:13;99279.47;;;9.14;100.00
66547;BME280;53400;50.364;14.874;2022-10-31T08:11:39;99286.06;;;9.11;100.00
66547;BME280;53400;50.364;14.874;2022-10-31T08:14:06;99283.88;;;9.27;100.00
66547;BME280;53400;50.364;14.874;2022-10-31T08:16:32;99282.78;;;9.34;100.00
66547;BME280;53400;50.364;14.874;2022-10-31T08:18:57;99280.94;;;9.10;100.00
66547;BME280;53400;50.364;14.874;2022-10-31T08:21:23;99279.03;;;9.17;100.00
66547;BME280;53400;50.364;14.874;2022-10-31T08:23:51;99279.91;;;9.11;100.00
66547;BME280;53400;50.364;14.874;2022-10-31T08:26:17;99270.84;;;8.62;100.00
66547;BME280;53400;50.364;14.874;2022-10-31T08:28:43;99271.44;;;8.25;100.00
66547;BME280;53400;50.364;14.874;2022-10-31T08:31:09;99277.25;;;8.54;100.00
66547;BME280;53400;50.364;14.874;2022-10-31T08:33:35;99278.31;;;8.78;100.00
66547;BME280;53400;50.364;14.874;2022-10-31T08:36:01;99278.25;;;9.10;100.00
66547;BME280;53400;50.364;14.874;2022-10-31T08:38:27;99276.00;;;9.13;100.00
66547;BME280;53400;50.364;14.874;2022-10-31T08:40:55;99284.28;;;8.80;100.00
66547;BME280;53400;50.364;14.874;2022-10-31T08:43:20;99282.03;;;8.77;100.00
66547;BME280;53400;50.364;14.874;2022-10-31T08:45:48;99284.72;;;8.77;100.00
66547;BME280;53400;50.364;14.874;2022-10-31T08:48:16;99282.53;;;9.17;100.00
66547;BME280;53400;50.364;14.874;2022-10-31T08:50:43;99284.84;;;9.32;100.00
66547;BME280;53400;50.364;14.874;2022-10-31T08:53:11;99281.91;;;9.40;100.00
66547;BME280;53400;50.364;14.874;2022-10-31T08:55:39;99280.25;;;9.58;100.00
66547;BME280;53400;50.364;14.874;2022-10-31T08:58:09;99276.69;;;9.82;100.00
66547;BME280;53400;50.364;14.874;2022-10-31T09:00:35;99277.22;;;9.91;100.00
66547;BME280;53400;50.364;14.874;2022-10-31T09:03:03;99276.50;;;9.65;100.00
66547;BME280;53400;50.364;14.874;2022-10-31T09:05:29;99279.16;;;9.47;100.00
66547;BME280;53400;50.364;14.874;2022-10-31T09:07:56;99280.94;;;9.35;100.00
66547;BME280;53400;50.364;14.874;2022-10-31T09:10:23;99278.66;;;9.13;100.00
66547;BME280;53400;50.364;14.874;2022-10-31T09:12:54;99271.44;;;9.57;100.00
66547;BME280;53400;50.364;14.874;2022-10-31T09:15:22;99270.81;;;9.55;100.00
66547;BME280;53400;50.364;14.874;2022-10-31T09:17:48;99273.13;;;9.70;100.00
66547;BME280;53400;50.364;14.874;2022-10-31T09:20:14;99277.22;;;9.91;100.00
66547;BME280;53400;50.364;14.874;2022-10-31T09:22:40;99283.59;;;9.35;100.00
66547;BME280;53400;50.364;14.874;2022-10-31T09:25:07;99277.38;;;9.41;100.00
66547;BME280;53400;50.364;14.874;2022-10-31T09:27:33;99286.38;;;9.47;100.00
66547;BME280;53400;50.364;14.874;2022-10-31T09:29:59;99278.13;;;9.67;100.00
66547;BME280;53400;50.364;14.874;2022-10-31T09:32:26;99287.56;;;9.69;100.00
66547;BME280;53400;50.364;14.874;2022-10-31T09:34:52;99284.97;;;9.81;100.00
66547;BME280;53400;50.364;14.874;2022-10-31T09:37:18;99278.78;;;9.44;100.00
66547;BME280;53400;50.364;14.874;2022-10-31T09:39:44;99284.38;;;9.17;100.00
66547;BME280;53400;50.364;14.874;2022-10-31T09:42:43;99279.00;;;9.60;100.00
66547;BME280;53400;50.364;14.874;2022-10-31T09:45:18;99277.56;;;9.39;100.00
66547;BME280;53400;50.364;14.874;2022-10-31T09:47:56;99283.09;;;9.63;100.00
66547;BME280;53400;50.364;14.874;2022-10-31T09:50:31;99281.66;;;9.42;100.00
66547;BME280;53400;50.364;14.874;2022-10-31T09:53:00;99285.69;;;9.51;100.00
66547;BME280;53400;50.364;14.874;2022-10-31T09:55:31;99283.63;;;9.72;100.00
66547;BME280;53400;50.364;14.874;2022-10-31T09:58:00;99289.06;;;9.83;100.00
66547;BME280;53400;50.364;14.874;2022-10-31T10:00:27;99281.91;;;9.96;100.00
66547;BME280;53400;50.364;14.874;2022-10-31T10:02:57;99283.28;;;10.17;100.00
66547;BME280;53400;50.364;14.874;2022-10-31T10:05:36;99294.91;;;10.29;100.00
66547;BME280;53400;50.364;14.874;2022-10-31T10:08:10;99288.34;;;10.06;100.00
66547;BME280;53400;50.364;14.874;2022-10-31T10:10:45;99285.47;;;10.26;100.00
66547;BME280;53400;50.364;14.874;2022-10-31T10:16:09;99288.06;;;10.75;100.00
66547;BME280;53400;50.364;14.874;2022-10-31T10:18:58;99275.44;;;10.64;100.00
66547;BME280;53400;50.364;14.874;2022-10-31T10:21:35;99277.41;;;10.56;100.00
66547;BME280;53400;50.364;14.874;2022-10-31T10:24:23;99269.50;;;10.01;100.00
66547;BME280;53400;50.364;14.874;2022-10-31T10:26:58;99271.38;;;10.73;100.00
66547;BME280;53400;50.364;14.874;2022-10-31T10:29:34;99271.63;;;10.71;100.00
66547;BME280;53400;50.364;14.874;2022-10-31T10:32:08;99268.56;;;10.26;100.00
66547;BME280;53400;50.364;14.874;2022-10-31T10:34:41;99271.28;;;10.38;100.00
66547;BME280;53400;50.364;14.874;2022-10-31T10:37:15;99265.50;;;10.52;100.00
66547;BME280;53400;50.364;14.874;2022-10-31T10:39:46;99266.84;;;10.73;100.00
66547;BME280;53400;50.364;14.874;2022-10-31T10:42:15;99262.69;;;11.01;100.00
66547;BME280;53400;50.364;14.874;2022-10-31T10:45:00;99257.69;;;10.93;100.00
66547;BME280;53400;50.364;14.874;2022-10-31T10:47:57;99260.34;;;11.05;100.00
66547;BME280;53400;50.364;14.874;2022-10-31T10:50:33;99257.09;;;11.02;100.00
66547;BME280;53400;50.364;14.874;2022-10-31T10:53:06;99259.91;;;11.31;100.00
66547;BME280;53400;50.364;14.874;2022-10-31T10:55:39;99252.31;;;11.28;100.00
66547;BME280;53400;50.364;14.874;2022-10-31T10:58:07;99245.47;;;11.20;100.00
66547;BME280;53400;50.364;14.874;2022-10-31T11:00:37;99246.47;;;11.08;100.00
66547;BME280;53400;50.364;14.874;2022-10-31T11:03:04;99242.63;;;11.51;100.00
66547;BME280;53400;50.364;14.874;2022-10-31T11:05:39;99248.84;;;10.39;100.00
66547;BME280;53400;50.364;14.874;2022-10-31T11:08:07;99242.59;;;10.56;100.00
66547;BME280;53400;50.364;14.874;2022-10-31T11:10:34;99252.66;;;10.85;100.00
66547;BME280;53400;50.364;14.874;2022-10-31T11:13:17;99238.09;;;10.92;100.00
66547;BME280;53400;50.364;14.874;2022-10-31T11:15:53;99237.28;;;11.27;100.00
66547;BME280;53400;50.364;14.874;2022-10-31T11:18:22;99232.00;;;11.56;100.00
66547;BME280;53400;50.364;14.874;2022-10-31T11:20:53;99234.94;;;11.42;100.00
66547;BME280;53400;50.364;14.874;2022-10-31T11:23:21;99237.16;;;11.45;100.00
66547;BME280;53400;50.364;14.874;2022-10-31T11:25:51;99222.47;;;11.48;100.00
66547;BME280;53400;50.364;14.874;2022-10-31T11:28:18;99232.13;;;11.61;100.00
66547;BME280;53400;50.364;14.874;2022-10-31T11:30:46;99224.88;;;11.61;100.00
66547;BME280;53400;50.364;14.874;2022-10-31T11:33:17;99219.13;;;11.17;100.00
66547;BME280;53400;50.364;14.874;2022-10-31T11:35:44;99224.13;;;11.02;100.00
66547;BME280;53400;50.364;14.874;2022-10-31T11:38:17;99227.50;;;11.21;100.00
66547;BME280;53400;50.364;14.874;2022-10-31T11:40:52;99228.16;;;11.52;100.00
66547;BME280;53400;50.364;14.874;2022-10-31T11:43:19;99227.09;;;11.53;100.00
66547;BME280;53400;50.364;14.874;2022-10-31T11:45:45;99221.06;;;10.98;100.00
66547;BME280;53400;50.364;14.874;2022-10-31T11:48:16;99218.78;;;11.14;100.00
66547;BME280;53400;50.364;14.874;2022-10-31T11:50:48;99216.63;;;11.39;100.00
66547;BME280;53400;50.364;14.874;2022-10-31T11:53:18;99214.63;;;11.58;100.00
66547;BME280;53400;50.364;14.874;2022-10-31T11:55:45;99208.56;;;11.51;100.00
66547;BME280;53400;50.364;14.874;2022-10-31T11:58:22;99207.78;;;11.39;100.00
66547;BME280;53400;50.364;14.874;2022-10-31T12:00:51;99195.31;;;11.44;100.00
66547;BME280;53400;50.364;14.874;2022-10-31T12:03:29;99198.22;;;11.31;100.00
66547;BME280;53400;50.364;14.874;2022-10-31T12:06:02;99198.94;;;11.27;100.00
66547;BME280;53400;50.364;14.874;2022-10-31T12:08:34;99187.25;;;11.44;100.00
66547;BME280;53400;50.364;14.874;2022-10-31T12:11:09;99186.31;;;11.51;100.00
66547;BME280;53400;50.364;14.874;2022-10-31T12:13:39;99183.25;;;11.47;100.00
66547;BME280;53400;50.364;14.874;2022-10-31T12:16:12;99180.88;;;11.62;100.00
66547;BME280;53400;50.364;14.874;2022-10-31T12:19:02;99181.47;;;11.64;100.00
66547;BME280;53400;50.364;14.874;2022-10-31T12:21:40;99163.94;;;11.74;100.00
66547;BME280;53400;50.364;14.874;2022-10-31T12:24:21;99167.88;;;11.83;100.00
66547;BME280;53400;50.364;14.874;2022-10-31T12:27:01;99161.69;;;11.82;100.00
66547;BME280;53400;50.364;14.874;2022-10-31T12:29:45;99159.09;;;11.99;100.00
66547;BME280;53400;50.364;14.874;2022-10-31T12:32:24;99162.97;;;11.91;100.00
66547;BME280;53400;50.364;14.874;2022-10-31T12:35:05;99153.00;;;11.75;100.00
66547;BME280;53400;50.364;14.874;2022-10-31T12:37:45;99151.34;;;11.45;100.00
66547;BME280;53400;50.364;14.874;2022-10-31T12:40:29;99149.28;;;11.64;100.00
66547;BME280;53400;50.364;14.874;2022-10-31T12:43:08;99153.09;;;12.09;100.00
66547;BME280;53400;50.364;14.874;2022-10-31T12:45:52;99157.78;;;12.02;100.00
66547;BME280;53400;50.364;14.874;2022-10-31T12:51:17;99161.47;;;12.12;100.00
66547;BME280;53400;50.364;14.874;2022-10-31T12:53:56;99156.34;;;12.11;100.00
66547;BME280;53400;50.364;14.874;2022-10-31T12:56:41;99152.09;;;11.98;100.00
66547;BME280;53400;50.364;14.874;2022-10-31T12:59:14;99146.16;;;11.96;100.00
66547;BME280;53400;50.364;14.874;2022-10-31T13:01:48;99136.25;;;11.97;100.00
66547;BME280;53400;50.364;14.874;2022-10-31T13:04:24;99150.38;;;11.80;100.00
66547;BME280;53400;50.364;14.874;2022-10-31T13:06:59;99143.28;;;11.74;100.00
66547;BME280;53400;50.364;14.874;2022-10-31T13:09:29;99148.88;;;11.84;100.00